Airfield :
LOGIN :

Register | Disclaimer

   EN    FR    IT 

 










Legend :    VFR   Marginal VFR   IFR   Intensive IFR   Very Intensive IFR
Visi :
Ceiling :
>= 8 km
>= 3000ft
5 to 8 km
1000 to 3000 ft
1500m to 5 km
500 to 1000 ft
800 to 1500m
200 to 500 ft
< 800m
< 200 ft
Symbols :   Thunderstorms  Fog  Heavy snow  Heavy precipitations  Wind > 20 kt
SIGMETs :     Misc.  Thunderstorms  Icing  Turbulence  Mountain Waves  Volcanic Ashes







- Airport Elevation : 74 ft
- IATA code : EIN


EHEH - Eindhoven

CURRENT METAR :
  • 160325Z AUTO 21005KT 9999 NCD 13/11 Q1018 BLU

EXPIRED METARs :
  • 160255Z AUTO 21006KT 170V230 9999 NCD 12/11 Q1017 BLU
  • 160225Z AUTO 20006KT 9999 NCD 13/12 Q1017 BLU
  • 160155Z AUTO 16004KT 9000 BR NCD 13/12 Q1017 BLU
  • 160125Z AUTO 20004KT 9000 BR NCD 13/12 Q1017 BLU
  • 160055Z AUTO 18004KT 170V240 9999 SCT083 14/12 Q1017 BLU

TAF TAF EHEH
Valid from the 15 at 18:00 until the 17 at 00:00 UTC


151724Z 1518/1624 30006KT 9999 FEW025
PROB30
TEMPO 1518/1520 FEW012 FEW020CB SCT025
BECMG 1519/1521 VRB03KT
PROB40 1600/1604 4000 BR MIFG
BECMG 1603/1605 23005KT
PROB30
TEMPO 1613/1618 23010G20KT SCT025CB
BECMG 1618/1620 15004KT
No reported NOTAMs for that airfield.



MET'MAP, your aeronautical weather chart ! - Copyright ORBIFLY December 2007 - Disclaimer

ORBIFLY MET'MAP TEAM :

Programming & Development : Alexandra Zaïnal
Concept & Development : Baudouin d'Aumeries
Co-Development & Prog : Marc-Olivier Méhu
Technical & hardware support : Manuel Goepfert

Contact : metmap@orbifly.com




SOURCES & CREDITS :

   NOAA